createdAt,value
2019-03-24T00:02:44.944Z,99.699997
2019-03-24T00:07:47.293Z,99.900002
2019-03-24T00:12:49.566Z,99.699997
2019-03-24T00:17:51.871Z,99.900002
2019-03-24T00:22:54.168Z,99.900002
2019-03-24T00:28:13.797Z,99.900002
2019-03-24T00:33:02.792Z,99.900002
2019-03-24T00:38:03.306Z,99.900002
2019-03-24T00:43:03.990Z,99.900002
2019-03-24T00:48:05.707Z,99.900002
2019-03-24T00:53:09.331Z,99.900002
2019-03-24T01:03:14.701Z,99.900002
2019-03-24T01:08:17.055Z,99.900002
2019-03-24T01:13:19.260Z,99.900002
2019-03-24T01:18:21.612Z,99.900002
2019-03-24T01:23:23.970Z,99.900002
2019-03-24T01:28:26.187Z,99.900002
2019-03-24T01:33:28.450Z,99.900002
2019-03-24T01:38:30.799Z,99.900002
2019-03-24T01:43:33.054Z,99.900002
2019-03-24T01:53:37.649Z,99.900002
2019-03-24T01:58:39.824Z,99.900002
2019-03-24T02:03:42.180Z,99.900002
2019-03-24T02:08:44.536Z,99.900002
2019-03-24T02:22:12.734Z,99.900002
2019-03-24T02:27:15.117Z,99.900002
2019-03-24T02:32:17.440Z,99.900002
2019-03-24T02:37:19.660Z,99.900002
2019-03-24T02:42:21.955Z,99.900002
2019-03-24T02:47:24.341Z,99.900002
2019-03-24T02:52:26.497Z,99.900002
2019-03-24T02:57:28.773Z,99.900002
2019-03-24T03:02:31.118Z,99.900002
2019-03-24T03:07:33.529Z,99.900002
2019-03-24T03:12:35.807Z,99.900002
2019-03-24T03:17:39.151Z,99.900002
2019-03-24T03:22:40.335Z,99.900002
2019-03-24T03:27:42.603Z,99.900002
2019-03-24T03:32:44.823Z,99.900002
2019-03-24T03:37:47.172Z,99.900002
2019-03-24T03:42:49.516Z,99.900002
2019-03-24T03:47:51.943Z,99.900002
2019-03-24T03:52:54.084Z,99.900002
2019-03-24T03:57:56.440Z,99.900002
2019-03-24T04:02:58.636Z,99.900002
2019-03-24T04:08:00.924Z,99.900002
2019-03-24T04:13:03.178Z,99.900002
2019-03-24T04:18:05.547Z,99.900002
2019-03-24T04:23:12.097Z,99.900002
2019-03-24T04:28:10.308Z,99.900002
2019-03-24T04:41:20.572Z,99.900002
2019-03-24T04:46:22.705Z,99.900002
2019-03-24T04:51:25.035Z,99.900002
2019-03-24T04:56:27.249Z,99.900002
2019-03-24T05:01:29.601Z,99.900002
2019-03-24T05:06:37.041Z,99.900002
2019-03-24T05:11:34.307Z,99.900002
2019-03-24T05:16:36.571Z,99.900002
2019-03-24T05:21:38.796Z,99.900002
2019-03-24T05:26:41.058Z,99.900002
2019-03-24T05:31:43.437Z,99.900002
2019-03-24T05:36:45.550Z,99.900002
2019-03-24T05:41:47.964Z,99.900002
2019-03-24T05:46:50.166Z,99.900002
2019-03-24T05:51:52.513Z,99.900002
2019-03-24T05:56:54.919Z,99.900002
2019-03-24T06:01:57.146Z,99.900002
2019-03-24T06:06:59.355Z,99.900002
2019-03-24T06:12:01.740Z,99.900002
2019-03-24T06:17:04.001Z,99.900002
2019-03-24T06:22:06.336Z,99.900002
2019-03-24T06:27:09.748Z,99.900002
2019-03-24T06:32:10.895Z,99.900002
2019-03-24T06:37:13.180Z,99.900002
2019-03-24T06:42:15.461Z,99.900002
2019-03-24T06:47:17.758Z,99.900002
2019-03-24T06:52:19.991Z,99.900002
2019-03-24T06:57:22.465Z,99.900002
2019-03-24T07:02:24.753Z,99.900002
2019-03-24T07:07:26.965Z,99.900002
2019-03-24T07:12:29.224Z,99.900002
2019-03-24T07:17:31.626Z,99.199997
2019-03-24T07:22:33.842Z,96.199997
2019-03-24T07:27:36.127Z,95.800003
2019-03-24T07:32:38.513Z,96.699997
2019-03-24T07:37:40.671Z,95.400002
2019-03-24T07:42:43.025Z,95.300003
2019-03-24T07:47:45.404Z,91.199997
2019-03-24T07:52:47.600Z,86.599998
2019-03-24T07:57:49.915Z,96.5
2019-03-24T08:02:52.157Z,96.099998
2019-03-24T08:07:54.577Z,96.900002
2019-03-24T08:12:58.151Z,94.900002
2019-03-24T08:17:59.101Z,96.699997
2019-03-24T08:23:01.410Z,94.400002
2019-03-24T08:28:03.576Z,98.400002
2019-03-24T08:33:05.879Z,98.300003
2019-03-24T08:38:20.100Z,99.900002
2019-03-24T09:06:33.779Z,99.699997
2019-03-24T09:11:34.987Z,90.099998
2019-03-24T09:16:37.177Z,92.300003
2019-03-24T09:21:40.974Z,89.199997
2019-03-24T09:31:44.269Z,84.199997
2019-03-24T09:54:53.909Z,67
2019-03-24T09:59:55.511Z,56
2019-03-24T10:31:05.619Z,51.700001
2019-03-24T10:53:39.554Z,40.299999
2019-03-24T10:58:40.819Z,35.299999
2019-03-24T11:03:45.474Z,35.799999
2019-03-24T11:08:45.270Z,33.099998
2019-03-24T11:13:47.573Z,35.5
2019-03-24T11:18:49.894Z,39.900002
2019-03-24T11:23:52.086Z,35.5
2019-03-24T11:28:54.430Z,35.5
2019-03-24T11:33:56.809Z,39.599998
2019-03-24T11:39:00.863Z,39.400002
2019-03-24T11:44:01.357Z,39.400002
2019-03-24T11:49:03.662Z,36.799999
2019-03-24T11:54:05.940Z,36.900002
2019-03-24T11:59:09.521Z,33.5
2019-03-24T12:04:10.480Z,36.799999
2019-03-24T12:09:12.808Z,33.799999
2019-03-24T12:14:16.289Z,33.400002
2019-03-24T12:19:17.488Z,31.9
2019-03-24T12:24:19.793Z,32.900002
2019-03-24T12:29:22.022Z,34.5
2019-03-24T12:34:24.346Z,31.799999
2019-03-24T12:39:26.616Z,30
2019-03-24T12:44:28.832Z,30.9
2019-03-24T12:49:32.379Z,33.200001
2019-03-24T12:54:35.232Z,32.099998
2019-03-24T12:59:35.819Z,33
2019-03-24T13:04:38.052Z,34.200001
2019-03-24T13:09:40.306Z,36.599998
2019-03-24T13:14:42.663Z,28.799999
2019-03-24T13:19:44.979Z,32.299999
2019-03-24T13:24:51.370Z,30.799999
2019-03-24T13:29:49.625Z,28.799999
2019-03-24T13:34:51.890Z,29.200001
2019-03-24T13:39:54.171Z,31.6
2019-03-24T13:44:56.419Z,30.799999
2019-03-24T13:49:58.791Z,25
2019-03-24T13:55:01.136Z,25.799999
2019-03-24T14:00:03.505Z,27.299999
2019-03-24T14:05:05.611Z,27.6
2019-03-24T14:10:07.842Z,30.700001
2019-03-24T14:15:10.220Z,29.1
2019-03-24T14:20:12.484Z,28.200001
2019-03-24T14:25:16.247Z,26.6
2019-03-24T14:30:17.101Z,25.200001
2019-03-24T14:35:19.473Z,29.200001
2019-03-24T14:40:21.691Z,30.200001
2019-03-24T14:45:23.902Z,27.4
2019-03-24T14:50:26.205Z,27.4
2019-03-24T14:55:28.522Z,24.799999
2019-03-24T15:00:30.806Z,28.1
2019-03-24T15:05:33.176Z,27.200001
2019-03-24T15:10:35.495Z,26.4
2019-03-24T15:15:37.725Z,26.200001
2019-03-24T15:20:39.914Z,23.9
2019-03-24T15:25:42.288Z,27
2019-03-24T15:30:45.630Z,23.799999
2019-03-24T15:35:46.843Z,27.200001
2019-03-24T15:40:49.552Z,27
2019-03-24T15:53:52.094Z,21.5
2019-03-24T15:58:54.399Z,23.6
2019-03-24T16:03:56.631Z,23.799999
2019-03-24T16:08:58.990Z,25.200001
2019-03-24T16:14:01.316Z,24.9
2019-03-24T16:19:04.725Z,25
2019-03-24T16:24:07.221Z,25.9
2019-03-24T16:29:08.085Z,27.4
2019-03-24T16:34:10.421Z,29.1
2019-03-24T16:39:12.753Z,27.6
2019-03-24T16:44:14.985Z,28.6
2019-03-24T16:49:17.262Z,27.5
2019-03-24T16:54:19.731Z,32
2019-03-24T16:59:23.046Z,35.099998
2019-03-24T17:20:26.760Z,40.799999
2019-03-24T17:25:29.108Z,41.799999
2019-03-24T17:30:31.419Z,39.799999
2019-03-24T17:35:33.642Z,40.400002
2019-03-24T17:40:39.072Z,40.799999
2019-03-24T17:45:38.168Z,43
2019-03-24T17:50:40.630Z,45.799999
2019-03-24T18:00:45.113Z,50
2019-03-24T18:05:47.463Z,52.400002
2019-03-24T18:10:49.769Z,54
2019-03-24T18:15:51.986Z,55.099998
2019-03-24T18:20:54.261Z,56.700001
2019-03-24T18:25:58.358Z,56.799999
2019-03-24T18:30:58.925Z,57.299999
2019-03-24T18:36:01.114Z,57.900002
2019-03-24T18:41:03.548Z,58.400002
2019-03-24T18:46:05.797Z,60.400002
2019-03-24T18:51:08.002Z,62.400002
2019-03-24T18:56:10.278Z,64.599998
2019-03-24T19:01:12.624Z,65.5
2019-03-24T19:06:14.973Z,68.599998
2019-03-24T19:11:18.323Z,68
2019-03-24T19:16:19.614Z,68.800003
2019-03-24T19:21:21.845Z,69.699997
2019-03-24T19:26:24.088Z,71
2019-03-24T19:31:26.397Z,71
2019-03-24T19:36:28.620Z,74
2019-03-24T19:41:30.903Z,73.300003
2019-03-24T19:46:33.494Z,72.599998
2019-03-24T19:51:36.804Z,72.199997
2019-03-24T19:56:37.942Z,70.5
2019-03-24T20:01:40.092Z,70.300003
2019-03-24T20:11:44.846Z,71.300003
2019-03-24T20:16:46.991Z,71.800003
2019-03-24T20:21:49.322Z,70.300003
2019-03-24T20:26:51.702Z,72
2019-03-24T20:31:53.984Z,70.599998
2019-03-24T20:36:56.162Z,72
2019-03-24T20:41:58.551Z,72.300003
2019-03-24T20:47:00.851Z,72
2019-03-24T20:53:05.558Z,73.699997
2019-03-24T23:35:04.612Z,68.599998
2019-03-24T23:40:06.675Z,68.099998
2019-03-24T23:45:07.887Z,69
2019-03-24T23:50:10.177Z,69.900002
2019-03-24T23:55:12.446Z,71.400002
